KHNB

Huntingburg Airport

Huntingburg, Indiana, USA
KHNB 230540Z 2306/2406 08011KT P6SM -RA OVC080 FM230800 08011KT 6SM -RA OVC060 WS020/12040KT FM230900 07012KT 6SM -RA OVC050 FM231400 09014KT P6SM -RA OVC015 FM231800 09012KT P6SM OVC015
Issued Valid From Valid To
Apr-23 @ 05:40 UTC
(4 hours ago)
Apr-23 @ 06:00 UTC
(4 hours ago)
Apr-24 @ 06:00 UTC
(in 20 hours)
Expired Click to View Apr-23 @ 06:00 to Apr-23 @ 08:00
KHNB 230540Z 2306/2406 08011KT P6SM -RA OVC080
Wind Visibility Clouds Conditions
80° at 11 knots Greater than 6 miles
  • Overcast at 8,000' AGL
  • Light Rain
Expired Click to View Apr-23 @ 08:00 to Apr-23 @ 09:00
FM230800 08011KT 6SM -RA OVC060 WS020/12040KT
Wind Visibility Clouds Conditions
80° at 11 knots
 Wind shear 2,000' AGL from 120° at 40 knots
6 miles
  • Overcast at 6,000' AGL
  • Light Rain
From Apr-23 @ 09:00 to Apr-23 @ 14:00
FM230900 07012KT 6SM -RA OVC050
Wind Visibility Clouds Conditions
70° at 12 knots 6 miles
  • Overcast at 5,000' AGL
  • Light Rain
From Apr-23 @ 14:00 to Apr-23 @ 18:00
FM231400 09014KT P6SM -RA OVC015
Wind Visibility Clouds Conditions
90° at 14 knots Greater than 6 miles
  • Overcast at 1,500' AGL
  • Light Rain
From Apr-23 @ 18:00 to Apr-24 @ 06:00
FM231800 09012KT P6SM OVC015
Wind Visibility Clouds
90° at 12 knots Greater than 6 miles
  • Overcast at 1,500' AGL
KHNB 230540Z 2306/2406 08011KT P6SM -RA OVC080 FM230800 08011KT 6SM -RA OVC060 WS020/12040KT FM230900 07012KT 6SM -RA OVC050 FM231400 09014KT P6SM -RA OVC015 FM231800 09012KT P6SM OVC015
Issued Apr-23 @ 05:40 UTC
(4 hours ago)
Valid From Apr-23 @ 06:00 UTC
(4 hours ago)
Valid To Apr-24 @ 06:00 UTC
(in 20 hours)
Apr-23 @ 06:00 - Apr-23 @ 08:00
Wind Visibility
80° at 11 knots Greater than 6 miles
Clouds
  • Overcast at 8,000' AGL
Conditions
  • Light Rain
Apr-23 @ 08:00 - Apr-23 @ 09:00
Wind Visibility
80° at 11 knots 6 miles
Clouds
  • Overcast at 6,000' AGL
Conditions
  • Light Rain
From Apr-23 @ 09:00 - Apr-23 @ 14:00
Wind Visibility
70° at 12 knots 6 miles
Clouds
  • Overcast at 5,000' AGL
Conditions
  • Light Rain
From Apr-23 @ 14:00 - Apr-23 @ 18:00
Wind Visibility
90° at 14 knots Greater than 6 miles
Clouds
  • Overcast at 1,500' AGL
Conditions
  • Light Rain
From Apr-23 @ 18:00 - Apr-24 @ 06:00
Wind Visibility
90° at 12 knots Greater than 6 miles
Clouds
  • Overcast at 1,500' AGL